createdAt,value
2018-12-23T00:00:52.602Z,8.90
2018-12-23T00:03:20.084Z,8.80
2018-12-23T00:05:47.643Z,8.70
2018-12-23T00:08:15.364Z,8.80
2018-12-23T00:10:42.862Z,8.80
2018-12-23T00:13:10.422Z,8.80
2018-12-23T00:15:37.968Z,8.70
2018-12-23T00:18:05.452Z,8.70
2018-12-23T00:20:32.978Z,8.60
2018-12-23T00:23:00.482Z,8.60
2018-12-23T00:25:27.990Z,8.60
2018-12-23T00:27:55.494Z,8.70
2018-12-23T00:30:22.976Z,8.60
2018-12-23T00:32:50.468Z,8.70
2018-12-23T00:35:20.624Z,8.70
2018-12-23T00:37:47.754Z,8.70
2018-12-23T00:40:15.305Z,8.80
2018-12-23T00:42:42.802Z,8.80
2018-12-23T00:45:10.322Z,8.70
2018-12-23T00:47:37.820Z,8.70
2018-12-23T00:50:06.257Z,8.60
2018-12-23T00:52:33.740Z,8.60
2018-12-23T00:55:01.246Z,8.60
2018-12-23T00:57:28.931Z,8.50
2018-12-23T00:59:56.424Z,8.50
2018-12-23T01:02:23.986Z,8.40
2018-12-23T01:04:51.492Z,8.40
2018-12-23T01:07:19.035Z,8.30
2018-12-23T01:09:46.629Z,8.30
2018-12-23T01:12:14.174Z,8.30
2018-12-23T01:14:41.783Z,8.30
2018-12-23T01:17:09.254Z,8.20
2018-12-23T01:19:36.787Z,8.30
2018-12-23T01:22:11.552Z,8.20
2018-12-23T01:24:39.045Z,8.20
2018-12-23T01:27:06.525Z,8.20
2018-12-23T01:29:34.022Z,8.20
2018-12-23T01:32:01.520Z,8.20
2018-12-23T01:34:36.858Z,8.10
2018-12-23T01:36:58.620Z,8.10
2018-12-23T01:39:26.188Z,8.10
2018-12-23T01:41:53.711Z,8.10
2018-12-23T01:44:21.216Z,8.10
2018-12-23T01:46:48.711Z,8.00
2018-12-23T01:49:16.207Z,8.00
2018-12-23T01:51:43.731Z,8.00
2018-12-23T01:54:11.233Z,8.00
2018-12-23T01:56:38.743Z,8.00
2018-12-23T01:59:06.246Z,8.00
2018-12-23T02:01:33.756Z,8.00
2018-12-23T02:04:01.264Z,7.90
2018-12-23T02:06:31.941Z,8.00
2018-12-23T02:08:59.449Z,7.90
2018-12-23T02:11:26.929Z,7.90
2018-12-23T02:13:54.419Z,7.90
2018-12-23T02:16:22.864Z,7.90
2018-12-23T02:18:50.454Z,7.90
2018-12-23T02:21:18.070Z,7.90
2018-12-23T02:23:45.655Z,7.90
2018-12-23T02:26:13.149Z,7.90
2018-12-23T02:28:40.652Z,7.90
2018-12-23T02:31:08.148Z,7.90
2018-12-23T02:33:35.674Z,7.90
2018-12-23T02:36:03.165Z,7.90
2018-12-23T02:38:31.279Z,7.80
2018-12-23T02:40:58.802Z,7.90
2018-12-23T02:43:26.391Z,7.90
2018-12-23T02:45:53.915Z,7.90
2018-12-23T02:48:21.406Z,8.00
2018-12-23T02:50:58.713Z,7.90
2018-12-23T02:53:26.210Z,8.00
2018-12-23T02:55:53.731Z,8.00
2018-12-23T02:58:21.214Z,7.90
2018-12-23T03:00:48.710Z,7.90
2018-12-23T03:03:16.298Z,7.90
2018-12-23T03:05:43.829Z,7.90
2018-12-23T03:08:11.329Z,7.80
2018-12-23T03:10:38.842Z,7.80
2018-12-23T03:13:06.357Z,7.80
2018-12-23T03:15:33.860Z,7.80
2018-12-23T03:18:01.351Z,7.80
2018-12-23T03:20:28.852Z,7.80
2018-12-23T03:22:56.339Z,7.80
2018-12-23T03:25:23.844Z,7.80
2018-12-23T03:27:51.340Z,7.80
2018-12-23T03:30:18.971Z,7.70
2018-12-23T03:32:46.476Z,7.60
2018-12-23T03:35:15.206Z,7.60
2018-12-23T03:37:42.763Z,7.50
2018-12-23T03:40:10.393Z,7.50
2018-12-23T03:42:37.998Z,7.40
2018-12-23T03:45:05.854Z,7.30
2018-12-23T03:47:33.503Z,7.40
2018-12-23T03:50:01.009Z,7.40
2018-12-23T03:52:28.545Z,7.60
2018-12-23T03:54:56.088Z,7.60
2018-12-23T03:57:23.660Z,7.60
2018-12-23T03:59:51.300Z,7.50
2018-12-23T04:02:18.849Z,7.60
2018-12-23T04:04:46.350Z,7.50
2018-12-23T04:07:13.903Z,7.50
2018-12-23T04:09:41.449Z,7.40
2018-12-23T04:12:08.938Z,7.50
2018-12-23T04:14:36.492Z,7.50
2018-12-23T04:17:04.044Z,7.40
2018-12-23T04:19:39.689Z,7.40
2018-12-23T04:22:07.211Z,7.40
2018-12-23T04:24:34.812Z,7.40
2018-12-23T04:27:02.373Z,7.60
2018-12-23T04:29:30.768Z,7.50
2018-12-23T04:31:58.254Z,7.60
2018-12-23T04:34:26.721Z,7.60
2018-12-23T04:36:54.244Z,7.70
2018-12-23T04:39:21.752Z,7.70
2018-12-23T04:41:49.253Z,7.60
2018-12-23T04:44:16.748Z,7.60
2018-12-23T04:46:44.271Z,7.70
2018-12-23T04:49:11.790Z,7.80
2018-12-23T04:51:39.370Z,7.80
2018-12-23T04:54:06.933Z,7.90
2018-12-23T04:56:34.419Z,7.90
2018-12-23T04:59:01.915Z,7.70
2018-12-23T05:01:29.416Z,7.50
2018-12-23T05:03:56.916Z,7.50
2018-12-23T05:06:24.447Z,7.50
2018-12-23T05:08:51.965Z,7.50
2018-12-23T05:11:19.581Z,7.50
2018-12-23T05:13:47.090Z,7.50
2018-12-23T05:16:14.590Z,7.50
2018-12-23T05:18:42.096Z,7.60
2018-12-23T05:21:09.611Z,7.50
2018-12-23T05:23:37.095Z,7.40
2018-12-23T05:28:59.403Z,7.50
2018-12-23T05:31:26.978Z,7.50
2018-12-23T05:33:54.478Z,7.60
2018-12-23T05:36:21.978Z,7.50
2018-12-23T05:38:49.467Z,7.50
2018-12-23T05:41:16.959Z,7.60
2018-12-23T05:43:44.503Z,7.50
2018-12-23T05:46:12.033Z,7.50
2018-12-23T05:48:39.547Z,7.60
2018-12-23T05:51:07.066Z,7.50
2018-12-23T06:00:19.421Z,7.60
2018-12-23T06:02:46.933Z,7.50
2018-12-23T06:05:14.426Z,7.60
2018-12-23T06:07:41.934Z,7.60
2018-12-23T06:10:09.455Z,7.60
2018-12-23T06:12:43.094Z,7.60
2018-12-23T06:15:10.582Z,7.60
2018-12-23T06:17:38.088Z,7.60
2018-12-23T06:20:05.851Z,7.60
2018-12-23T06:22:33.336Z,7.70
2018-12-23T06:25:00.862Z,7.70
2018-12-23T06:27:28.383Z,7.60
2018-12-23T06:29:55.865Z,7.60
2018-12-23T06:32:23.390Z,7.70
2018-12-23T06:34:57.810Z,7.70
2018-12-23T06:37:25.315Z,7.60
2018-12-23T06:39:52.916Z,7.60
2018-12-23T06:42:20.418Z,7.70
2018-12-23T06:44:47.917Z,7.70
2018-12-23T06:47:15.403Z,7.60
2018-12-23T06:49:42.909Z,7.60
2018-12-23T06:52:10.450Z,7.80
2018-12-23T06:54:37.954Z,7.70
2018-12-23T06:57:05.479Z,7.80
2018-12-23T06:59:32.987Z,7.70
2018-12-23T07:02:00.519Z,7.70
2018-12-23T07:04:28.014Z,7.70
2018-12-23T07:06:55.507Z,7.60
2018-12-23T07:09:23.042Z,7.70
2018-12-23T07:11:50.637Z,7.60
2018-12-23T07:14:18.137Z,7.60
2018-12-23T07:16:45.656Z,7.70
2018-12-23T07:19:30.627Z,7.60
2018-12-23T07:21:58.188Z,7.60
2018-12-23T07:24:25.690Z,7.60
2018-12-23T07:26:53.225Z,7.60
2018-12-23T07:29:20.703Z,7.70
2018-12-23T07:31:48.194Z,7.70
2018-12-23T07:34:15.686Z,7.70
2018-12-23T07:36:49.572Z,7.70
2018-12-23T07:39:12.679Z,7.70
2018-12-23T07:41:57.448Z,7.80
2018-12-23T07:44:24.964Z,7.80
2018-12-23T07:46:52.480Z,7.80
2018-12-23T07:49:19.969Z,7.90
2018-12-23T07:51:47.484Z,7.90
2018-12-23T07:54:14.999Z,7.90
2018-12-23T07:56:42.483Z,8.00
2018-12-23T07:59:10.005Z,7.90
2018-12-23T08:01:37.499Z,8.00
2018-12-23T08:04:05.003Z,8.00
2018-12-23T08:06:32.511Z,8.00
2018-12-23T08:09:00.045Z,8.00
2018-12-23T08:11:27.552Z,8.10
2018-12-23T08:13:55.069Z,8.10
2018-12-23T08:16:22.610Z,8.10
2018-12-23T08:18:50.185Z,8.10
2018-12-23T08:21:17.974Z,8.20
2018-12-23T08:23:45.458Z,8.20
2018-12-23T08:26:13.794Z,8.20
2018-12-23T08:28:47.203Z,8.20
2018-12-23T08:31:14.816Z,8.30
2018-12-23T08:33:42.359Z,8.30
2018-12-23T08:36:09.877Z,8.30
2018-12-23T08:38:37.461Z,8.30
2018-12-23T08:41:05.016Z,8.40
2018-12-23T08:43:32.563Z,8.40
2018-12-23T08:46:00.078Z,8.40
2018-12-23T08:48:27.612Z,8.40
2018-12-23T08:54:04.111Z,8.50
2018-12-23T08:56:31.627Z,8.50
2018-12-23T08:58:59.160Z,8.50
2018-12-23T09:01:26.717Z,8.50
2018-12-23T09:03:54.227Z,8.50
2018-12-23T09:06:21.779Z,8.50
2018-12-23T09:08:49.779Z,8.60
2018-12-23T09:11:17.361Z,8.70
2018-12-23T09:13:44.908Z,8.70
2018-12-23T09:16:12.454Z,8.70
2018-12-23T09:18:40.034Z,8.70
2018-12-23T09:21:07.854Z,8.70
2018-12-23T09:23:35.376Z,8.70
2018-12-23T09:26:02.920Z,8.80
2018-12-23T09:28:30.476Z,8.80
2018-12-23T09:30:58.007Z,8.80
2018-12-23T09:33:25.545Z,8.80
2018-12-23T09:35:53.069Z,8.80
2018-12-23T09:47:16.291Z,8.90
2018-12-23T09:49:43.812Z,8.90
2018-12-23T09:52:11.352Z,8.90
2018-12-23T09:54:38.874Z,8.90
2018-12-23T09:57:06.443Z,8.90
2018-12-23T09:59:34.005Z,8.90
2018-12-23T10:02:01.518Z,8.90
2018-12-23T10:04:30.033Z,8.90
2018-12-23T10:06:57.619Z,8.90
2018-12-23T10:09:27.778Z,8.90
2018-12-23T10:11:56.305Z,8.90
2018-12-23T10:14:24.919Z,9.00
2018-12-23T10:16:52.649Z,9.00
2018-12-23T10:19:21.958Z,9.00
2018-12-23T10:21:49.509Z,9.10
2018-12-23T10:24:17.091Z,9.20
2018-12-23T10:26:44.832Z,9.10
2018-12-23T10:29:13.342Z,9.10
2018-12-23T10:31:43.525Z,8.90
2018-12-23T10:34:12.051Z,8.80
2018-12-23T10:36:39.643Z,8.80
2018-12-23T10:39:07.369Z,8.70
2018-12-23T10:41:36.134Z,8.80
2018-12-23T10:44:03.801Z,8.80
2018-12-23T10:46:31.864Z,8.80
2018-12-23T10:48:59.658Z,8.90
2018-12-23T10:51:29.166Z,8.90
2018-12-23T10:54:11.595Z,8.90
2018-12-23T10:56:39.243Z,8.90
2018-12-23T10:59:08.625Z,8.90
2018-12-23T11:01:36.272Z,8.90
2018-12-23T11:04:03.844Z,8.90
2018-12-23T11:06:31.470Z,8.90
2018-12-23T11:09:00.765Z,8.80
2018-12-23T11:11:28.317Z,8.80
2018-12-23T11:13:57.497Z,8.90
2018-12-23T11:16:27.047Z,8.80
2018-12-23T11:18:56.385Z,8.80
2018-12-23T11:21:24.054Z,8.80
2018-12-23T11:23:51.625Z,8.80
2018-12-23T11:26:20.193Z,8.80
2018-12-23T11:28:49.299Z,8.80
2018-12-23T11:31:16.881Z,8.80
2018-12-23T11:33:49.267Z,8.80
2018-12-23T11:36:19.276Z,8.80
2018-12-23T11:38:57.475Z,8.80
2018-12-23T11:41:29.848Z,8.80
2018-12-23T11:43:58.153Z,8.80
2018-12-23T11:46:25.846Z,8.70
2018-12-23T11:48:53.750Z,8.80
2018-12-23T11:51:23.968Z,8.70
2018-12-23T11:53:55.727Z,8.80
2018-12-23T11:56:24.005Z,8.70
2018-12-23T11:58:51.587Z,8.80
2018-12-23T12:01:19.106Z,8.80
2018-12-23T12:03:46.703Z,8.80
2018-12-23T12:06:14.260Z,8.90
2018-12-23T12:08:43.896Z,8.90
2018-12-23T12:11:11.428Z,8.90
2018-12-23T12:13:39.772Z,9.00
2018-12-23T12:16:07.335Z,9.10
2018-12-23T12:18:35.526Z,8.90
2018-12-23T12:21:13.019Z,8.90
2018-12-23T12:23:40.592Z,8.90
2018-12-23T12:26:08.236Z,9.00
2018-12-23T12:28:35.772Z,9.00
2018-12-23T12:31:03.272Z,9.00
2018-12-23T12:33:30.930Z,9.00
2018-12-23T12:35:58.539Z,9.00
2018-12-23T12:38:26.111Z,9.00
2018-12-23T12:40:54.449Z,9.00
2018-12-23T12:43:21.995Z,9.00
2018-12-23T12:45:49.572Z,9.00
2018-12-23T12:48:17.120Z,8.90
2018-12-23T12:50:44.734Z,8.90
2018-12-23T12:53:12.355Z,8.90
2018-12-23T12:55:39.895Z,9.00
2018-12-23T12:58:07.447Z,9.00
2018-12-23T13:00:34.989Z,9.00
2018-12-23T13:03:02.602Z,9.10
2018-12-23T13:05:31.983Z,9.20
2018-12-23T13:07:59.531Z,9.30
2018-12-23T13:10:27.084Z,9.30
2018-12-23T13:12:54.687Z,9.40
2018-12-23T13:15:22.263Z,9.30
2018-12-23T13:17:49.891Z,9.30
2018-12-23T13:20:17.452Z,9.40
2018-12-23T13:22:45.075Z,9.40
2018-12-23T13:25:12.695Z,9.50
2018-12-23T13:30:35.942Z,9.40
2018-12-23T13:33:04.441Z,9.50
2018-12-23T13:38:52.677Z,9.50
2018-12-23T13:41:36.952Z,9.60
2018-12-23T13:44:35.333Z,9.70
2018-12-23T13:47:19.563Z,9.70
2018-12-23T13:49:53.948Z,9.70
2018-12-23T13:52:42.644Z,9.70
2018-12-23T13:59:51.836Z,9.60
2018-12-23T14:05:28.188Z,9.80
2018-12-23T14:08:33.682Z,9.80
2018-12-23T14:11:12.025Z,9.80
2018-12-23T14:13:40.794Z,9.90
2018-12-23T14:16:11.204Z,9.60
2018-12-23T14:18:41.842Z,9.40
2018-12-23T14:21:10.656Z,9.50
2018-12-23T14:23:50.752Z,9.40
2018-12-23T14:26:22.747Z,9.40
2018-12-23T14:28:51.407Z,9.50
2018-12-23T14:31:30.137Z,9.60
2018-12-23T14:33:57.690Z,9.70
2018-12-23T14:36:26.340Z,9.50
2018-12-23T14:39:02.375Z,9.50
2018-12-23T14:41:31.125Z,9.40
2018-12-23T14:44:01.511Z,9.50
2018-12-23T14:46:38.686Z,9.70
2018-12-23T14:49:09.166Z,9.70
2018-12-23T14:51:37.814Z,9.40
2018-12-23T14:54:06.464Z,9.50
2018-12-23T14:56:35.144Z,9.50
2018-12-23T14:59:03.843Z,9.40
2018-12-23T15:01:32.518Z,9.50
2018-12-23T15:04:02.818Z,9.50
2018-12-23T15:06:31.425Z,9.60
2018-12-23T15:09:00.041Z,9.50
2018-12-23T15:11:28.614Z,9.50
2018-12-23T15:13:57.265Z,9.60
2018-12-23T15:16:25.829Z,9.60
2018-12-23T15:18:54.500Z,9.60
2018-12-23T15:21:23.056Z,9.70
2018-12-23T15:23:51.642Z,9.60
2018-12-23T15:26:20.210Z,9.70
2018-12-23T15:28:48.815Z,9.70
2018-12-23T15:31:17.501Z,9.70
2018-12-23T15:33:46.135Z,9.60
2018-12-23T15:36:15.157Z,9.60
2018-12-23T15:38:43.750Z,9.50
2018-12-23T15:41:12.396Z,9.60
2018-12-23T15:43:40.981Z,9.60
2018-12-23T15:46:09.588Z,9.50
2018-12-23T15:48:38.190Z,9.60
2018-12-23T15:51:06.948Z,9.60
2018-12-23T15:53:35.619Z,9.60
2018-12-23T15:56:04.273Z,9.60
2018-12-23T15:58:32.869Z,9.50
2018-12-23T16:01:01.459Z,9.50
2018-12-23T16:03:30.096Z,9.60
2018-12-23T16:05:58.678Z,9.60
2018-12-23T16:08:27.338Z,9.60
2018-12-23T16:10:55.925Z,9.70
2018-12-23T16:13:24.563Z,9.70
2018-12-23T16:15:53.139Z,9.70
2018-12-23T16:18:21.731Z,9.80
2018-12-23T16:20:50.295Z,9.80
2018-12-23T16:23:21.852Z,9.70
2018-12-23T16:25:50.291Z,9.70
2018-12-23T16:28:18.921Z,9.70
2018-12-23T16:30:47.528Z,9.70
2018-12-23T16:33:16.188Z,9.70
2018-12-23T16:35:44.771Z,9.70
2018-12-23T16:38:13.415Z,9.60
2018-12-23T16:40:42.095Z,9.50
2018-12-23T16:43:10.670Z,9.60
2018-12-23T16:45:39.324Z,9.70
2018-12-23T16:48:07.933Z,9.70
2018-12-23T16:50:36.568Z,9.70
2018-12-23T16:53:05.138Z,9.70
2018-12-23T16:55:34.679Z,9.70
2018-12-23T16:58:03.294Z,9.70
2018-12-23T17:00:31.937Z,9.70
2018-12-23T17:03:00.527Z,9.70
2018-12-23T17:05:29.108Z,9.70
2018-12-23T17:07:57.691Z,9.80
2018-12-23T17:10:26.408Z,9.70
2018-12-23T17:12:54.982Z,9.80
2018-12-23T17:15:23.635Z,9.80
2018-12-23T17:17:52.253Z,9.80
2018-12-23T17:20:20.925Z,9.90
2018-12-23T17:22:49.617Z,9.80
2018-12-23T17:25:18.201Z,9.90
2018-12-23T17:27:46.905Z,10.00
2018-12-23T17:30:15.488Z,9.90
2018-12-23T17:32:44.123Z,10.00
2018-12-23T17:35:13.633Z,9.90
2018-12-23T17:37:42.385Z,9.90
2018-12-23T17:40:16.426Z,9.80
2018-12-23T17:42:41.292Z,9.90
2018-12-23T17:45:09.847Z,9.90
2018-12-23T17:47:38.413Z,9.90
2018-12-23T17:50:08.868Z,9.80
2018-12-23T17:52:37.503Z,9.60
2018-12-23T17:55:06.206Z,9.60
2018-12-23T17:57:34.862Z,9.50
2018-12-23T18:00:03.661Z,9.60
2018-12-23T18:02:32.261Z,9.50
2018-12-23T18:05:00.827Z,9.60
2018-12-23T18:07:29.392Z,9.60
2018-12-23T18:09:58.054Z,9.50
2018-12-23T18:12:26.631Z,9.40
2018-12-23T18:14:55.190Z,9.40
2018-12-23T18:17:23.804Z,9.50
2018-12-23T18:19:52.386Z,9.50
2018-12-23T18:22:20.958Z,9.30
2018-12-23T18:24:49.562Z,9.30
2018-12-23T18:27:18.209Z,9.20
2018-12-23T18:29:46.776Z,9.20
2018-12-23T18:32:15.347Z,9.20
2018-12-23T18:34:43.909Z,9.10
2018-12-23T18:37:12.489Z,9.00
2018-12-23T18:39:41.095Z,8.90
2018-12-23T18:42:12.931Z,8.90
2018-12-23T18:44:41.533Z,8.80
2018-12-23T18:47:10.318Z,8.70
2018-12-23T18:49:38.995Z,8.70
2018-12-23T18:52:07.557Z,8.50
2018-12-23T18:54:36.154Z,8.40
2018-12-23T18:57:04.874Z,8.30
2018-12-23T18:59:34.498Z,8.30
2018-12-23T19:02:03.312Z,8.30
2018-12-23T19:04:32.648Z,8.30
2018-12-23T19:07:01.299Z,8.20
2018-12-23T19:09:31.718Z,8.30
2018-12-23T19:12:23.005Z,8.40
2018-12-23T19:15:06.254Z,8.30
2018-12-23T19:17:54.589Z,8.30
2018-12-23T19:20:56.536Z,8.30
2018-12-23T19:24:01.321Z,8.30
2018-12-23T19:26:35.401Z,8.30
2018-12-23T19:29:19.253Z,8.20
2018-12-23T19:32:24.271Z,8.20
2018-12-23T19:35:18.759Z,8.20
2018-12-23T19:38:16.094Z,8.20
2018-12-23T19:41:02.256Z,8.10
2018-12-23T19:43:49.069Z,8.00
2018-12-23T19:46:44.817Z,8.00
2018-12-23T19:49:42.133Z,8.00
2018-12-23T19:52:35.184Z,8.00
2018-12-23T19:55:15.602Z,7.90
2018-12-23T19:57:59.191Z,7.90
2018-12-23T20:00:51.885Z,7.90
2018-12-23T20:03:47.608Z,7.90
2018-12-23T20:06:21.949Z,8.00
2018-12-23T20:09:15.000Z,7.90
2018-12-23T20:12:04.101Z,8.00
2018-12-23T20:14:47.783Z,7.90
2018-12-23T20:17:39.292Z,8.00
2018-12-23T20:20:35.366Z,8.10
2018-12-23T20:23:38.795Z,8.10
2018-12-23T20:26:13.217Z,8.10
2018-12-23T20:29:01.664Z,8.00
2018-12-23T20:31:47.670Z,7.90
2018-12-23T20:34:25.251Z,8.10
2018-12-23T20:37:17.836Z,8.00
2018-12-23T20:39:58.508Z,7.90
2018-12-23T20:42:39.420Z,7.80
2018-12-23T20:45:33.081Z,7.80
2018-12-23T20:48:10.434Z,7.80
2018-12-23T20:50:53.912Z,7.70
2018-12-23T20:53:53.011Z,7.80
2018-12-23T20:56:27.583Z,7.80
2018-12-23T20:59:14.349Z,7.90
2018-12-23T21:02:14.810Z,7.90
2018-12-23T21:04:49.305Z,7.90
2018-12-23T21:07:32.806Z,7.90
2018-12-23T21:10:26.886Z,8.00
2018-12-23T21:13:16.539Z,8.00
2018-12-23T21:16:15.147Z,8.00
2018-12-23T21:19:01.894Z,8.10
2018-12-23T21:21:39.368Z,8.00
2018-12-23T21:24:33.861Z,8.10
2018-12-23T21:27:08.754Z,8.00
2018-12-23T21:29:49.308Z,7.70
2018-12-23T21:32:20.964Z,7.80
2018-12-23T21:35:14.066Z,7.70
2018-12-23T21:38:11.994Z,7.60
2018-12-23T21:41:08.656Z,7.70
2018-12-23T21:43:49.129Z,7.60
2018-12-23T21:46:35.643Z,7.70
2018-12-23T21:49:18.412Z,7.60
2018-12-23T21:52:10.080Z,7.50
2018-12-23T21:54:50.635Z,7.50
2018-12-23T21:57:39.180Z,7.50
2018-12-23T22:00:19.915Z,7.40
2018-12-23T22:02:54.077Z,7.50
2018-12-23T22:05:42.431Z,7.50
2018-12-23T22:08:44.164Z,7.50
2018-12-23T22:11:33.265Z,7.40
2018-12-23T22:14:00.376Z,7.40
2018-12-23T22:16:28.944Z,7.40
2018-12-23T22:18:57.517Z,7.40
2018-12-23T22:21:26.100Z,7.40
2018-12-23T22:23:54.671Z,7.30
2018-12-23T22:26:23.242Z,7.30
2018-12-23T22:28:51.826Z,7.30
2018-12-23T22:31:20.403Z,7.50
2018-12-23T22:33:48.987Z,7.40
2018-12-23T22:36:17.548Z,7.10
2018-12-23T22:38:46.148Z,7.20
2018-12-23T22:41:14.756Z,7.20
2018-12-23T22:43:43.317Z,7.30
2018-12-23T22:46:11.878Z,7.30
2018-12-23T22:48:40.465Z,7.40
2018-12-23T22:51:09.097Z,7.50
2018-12-23T22:53:37.726Z,7.50
2018-12-23T22:56:06.306Z,7.50
2018-12-23T22:58:34.859Z,7.40
2018-12-23T23:01:03.781Z,7.40
2018-12-23T23:03:32.455Z,7.50
2018-12-23T23:06:01.113Z,7.50
2018-12-23T23:08:29.769Z,7.30
2018-12-23T23:10:58.351Z,7.40
2018-12-23T23:13:26.891Z,7.50
2018-12-23T23:15:55.531Z,7.40
2018-12-23T23:18:24.122Z,7.50
2018-12-23T23:20:52.720Z,7.50
2018-12-23T23:23:21.333Z,7.40
2018-12-23T23:25:49.931Z,7.40
2018-12-23T23:28:18.566Z,7.30
2018-12-23T23:30:47.149Z,7.50
2018-12-23T23:33:17.404Z,7.50
2018-12-23T23:35:46.036Z,7.60
2018-12-23T23:38:14.684Z,7.60
2018-12-23T23:40:43.344Z,7.60
2018-12-23T23:43:12.059Z,7.60
2018-12-23T23:45:40.616Z,7.70
2018-12-23T23:48:09.281Z,7.60
2018-12-23T23:50:37.913Z,7.70
2018-12-23T23:53:06.478Z,7.70
2018-12-23T23:55:35.050Z,7.60
2018-12-23T23:58:03.645Z,7.50
